< < Back
Terminal Aerodrome Forecast


Current Version              Previous Versions:   1  2  3  4  5  6  7  8  9  

Terminal Aerodrome Forecast

549
FTUS44 KOHX 311900 AAA
TAFBNA
TAF AMD
KBNA 311925Z 3119/0118 26007G15KT P6SM FEW060 SCT080 SCT230
     FM010000 32005KT P6SM SCT250=



Latest METAR

178
SAUS70 KWBC 010000 RRN
MTRBNA
METAR KBNA 312353Z 29005KT 10SM FEW065 24/05 A2988 RMK AO2 SLP114
T02390050 10278 20239 55001


USA.gov is the U.S. government's official web portal to all federal, state and local government web resources and services.